LS Concorde — ZDHJ7 — position and weather

sailwx.info

Track history (hours):
 
Tides and Currents Weather Stations Pressure Air Temp Water Temp Dewpoint Dewpoint Depression Visibility Wind Speed Wind Dir Waves Ship Positions

LS Concorde

Last reported at 2016-Sep-26 08:33 UTC. Time now 2016-Sep-29 05:04 UTC.
Position N 37°51' E 015°47'.

Length 99 m; draft 5.3 m.

Type: Tanker. MMSI: 236329000.

Date/timePositionNaut miles runAvg speedWind from/ knotsBaromVisibWave heightAir tempDewpointWater temp
2016-Sep-26 08:33N 37°51' E 015°47'55 9.2
2016-Sep-26 02:33N 38°19' E 014°47'3213.1
2016-Sep-26 00:08N 38°25' E 014°07'3413.0
2016-Sep-25 21:33N 38°31' E 013°24'65213.0
2016-Sep-23 19:32N 36°51' W 000°10'8013.4
2016-Sep-23 13:33N 36°27' W 001°46'35510.8
2016-Sep-22 04:33N 37°43' W 009°01'1413.6
2016-Sep-22 03:33N 37°56' W 008°53'2 0.5
2016-Sep-22 00:33N 37°57' W 008°53'0 0.0
2016-Sep-21 23:33N 37°57' W 008°53'0 0.0
2016-Sep-21 22:33N 37°57' W 008°53'0 0.0
2016-Sep-21 19:33N 37°57' W 008°53'0 0.0
2016-Sep-21 16:33N 37°57' W 008°53'0 0.0
2016-Sep-21 09:33N 37°57' W 008°53'0 0.0
2016-Sep-21 08:33N 37°57' W 008°53'0 0.0
2016-Sep-21 05:33N 37°57' W 008°53'0 0.0
2016-Sep-21 03:33N 37°57' W 008°53'2 2.0
2016-Sep-21 02:33N 37°55' W 008°54'9510.4
2016-Sep-20 17:23N 39°09' W 010°11'  
2016-Sep-17 22:25N 50°23' W 000°48'12 9.2
2016-Sep-17 21:07N 50°28' W 000°31'5 9.4
2016-Sep-17 20:33N 50°28' W 000°23'1410.7
2016-Sep-17 19:16N 50°32' W 000°02'7212.6
2016-Sep-17 13:34N 51°08' E 001°36'1010.0
2016-Sep-17 12:34N 51°14' E 001°49'18 9.0
2016-Sep-17 10:33N 51°21' E 002°15'1312.8
2016-Sep-17 09:34N 51°22' E 002°36'1212.4
2016-Sep-17 08:34N 51°23' E 002°56'1312.6
2016-Sep-17 07:33N 51°25' E 003°16'2512.3
2016-Sep-17 05:33N 51°22' E 003°55'10 9.8
2016-Sep-17 04:33N 51°24' E 004°10'12 3.0
2016-Sep-17 00:32N 51°15' E 004°24'0 0.0
2016-Sep-16 17:32N 51°15' E 004°24'0 0.0
2016-Sep-16 15:32N 51°15' E 004°24'0 0.0
2016-Sep-16 12:32N 51°15' E 004°24'0 0.0
2016-Sep-16 09:29N 51°15' E 004°24'  
Track history (hours):
 
Tides and Currents Weather Stations Pressure Air Temp Water Temp Dewpoint Dewpoint Depression Visibility Wind Speed Wind Dir Waves Ship Positions

LS Concorde

Last reported at 2016-Sep-26 08:33 UTC. Time now 2016-Sep-29 05:04 UTC.
Position N 37°51' E 015°47'.

Length 99 m; draft 5.3 m.

Type: Tanker. MMSI: 236329000.

Date/timePositionNaut miles runAvg speedWind from/ knotsBaromVisibWave heightAir tempDewpointWater temp
2016-Sep-26 08:33N 37°51' E 015°47'55 9.2
2016-Sep-26 02:33N 38°19' E 014°47'3213.1
2016-Sep-26 00:08N 38°25' E 014°07'3413.0
2016-Sep-25 21:33N 38°31' E 013°24'65213.0
2016-Sep-23 19:32N 36°51' W 000°10'8013.4
2016-Sep-23 13:33N 36°27' W 001°46'35510.8
2016-Sep-22 04:33N 37°43' W 009°01'1413.6
2016-Sep-22 03:33N 37°56' W 008°53'2 0.5
2016-Sep-22 00:33N 37°57' W 008°53'0 0.0
2016-Sep-21 23:33N 37°57' W 008°53'0 0.0
2016-Sep-21 22:33N 37°57' W 008°53'0 0.0
2016-Sep-21 19:33N 37°57' W 008°53'0 0.0
2016-Sep-21 16:33N 37°57' W 008°53'0 0.0
2016-Sep-21 09:33N 37°57' W 008°53'0 0.0
2016-Sep-21 08:33N 37°57' W 008°53'0 0.0
2016-Sep-21 05:33N 37°57' W 008°53'0 0.0
2016-Sep-21 03:33N 37°57' W 008°53'2 2.0
2016-Sep-21 02:33N 37°55' W 008°54'9510.4
2016-Sep-20 17:23N 39°09' W 010°11'  
2016-Sep-17 22:25N 50°23' W 000°48'12 9.2
2016-Sep-17 21:07N 50°28' W 000°31'5 9.4
2016-Sep-17 20:33N 50°28' W 000°23'1410.7
2016-Sep-17 19:16N 50°32' W 000°02'7212.6
2016-Sep-17 13:34N 51°08' E 001°36'1010.0
2016-Sep-17 12:34N 51°14' E 001°49'18 9.0
2016-Sep-17 10:33N 51°21' E 002°15'1312.8
2016-Sep-17 09:34N 51°22' E 002°36'1212.4
2016-Sep-17 08:34N 51°23' E 002°56'1312.6
2016-Sep-17 07:33N 51°25' E 003°16'2512.3
2016-Sep-17 05:33N 51°22' E 003°55'10 9.8
2016-Sep-17 04:33N 51°24' E 004°10'12 3.0
2016-Sep-17 00:32N 51°15' E 004°24'0 0.0
2016-Sep-16 17:32N 51°15' E 004°24'0 0.0
2016-Sep-16 15:32N 51°15' E 004°24'0 0.0
2016-Sep-16 12:32N 51°15' E 004°24'0 0.0
2016-Sep-16 09:29N 51°15' E 004°24'  

Dump ship's entire track history